sensor_id;sensor_type;location;lat;lon;timestamp;P1;durP1;ratioP1;P2;durP2;ratioP2
25982;SDS011;13773;48.868;10.730;2022-09-17T00:00:39;2.73;;;2.53;;
25982;SDS011;13773;48.868;10.730;2022-09-17T00:03:05;3.07;;;2.70;;
25982;SDS011;13773;48.868;10.730;2022-09-17T00:05:34;3.40;;;3.10;;
25982;SDS011;13773;48.868;10.730;2022-09-17T00:08:03;5.37;;;3.90;;
25982;SDS011;13773;48.868;10.730;2022-09-17T00:10:31;5.47;;;4.07;;
25982;SDS011;13773;48.868;10.730;2022-09-17T00:13:01;4.77;;;4.33;;
25982;SDS011;13773;48.868;10.730;2022-09-17T00:15:27;5.67;;;4.90;;
25982;SDS011;13773;48.868;10.730;2022-09-17T00:17:56;6.80;;;5.93;;
25982;SDS011;13773;48.868;10.730;2022-09-17T00:20:25;6.90;;;6.20;;
25982;SDS011;13773;48.868;10.730;2022-09-17T00:22:52;6.57;;;5.93;;
25982;SDS011;13773;48.868;10.730;2022-09-17T00:25:22;7.27;;;6.47;;
25982;SDS011;13773;48.868;10.730;2022-09-17T00:27:48;7.93;;;6.93;;
25982;SDS011;13773;48.868;10.730;2022-09-17T00:30:13;8.80;;;6.97;;
25982;SDS011;13773;48.868;10.730;2022-09-17T00:32:39;7.80;;;7.00;;
25982;SDS011;13773;48.868;10.730;2022-09-17T00:35:05;7.87;;;7.17;;
25982;SDS011;13773;48.868;10.730;2022-09-17T00:37:31;8.83;;;7.53;;
25982;SDS011;13773;48.868;10.730;2022-09-17T00:39:57;7.33;;;6.73;;
25982;SDS011;13773;48.868;10.730;2022-09-17T00:42:22;9.33;;;6.97;;
25982;SDS011;13773;48.868;10.730;2022-09-17T00:44:52;7.17;;;6.07;;
25982;SDS011;13773;48.868;10.730;2022-09-17T00:50:04;5.47;;;4.97;;
25982;SDS011;13773;48.868;10.730;2022-09-17T00:53:13;8.80;;;5.47;;
25982;SDS011;13773;48.868;10.730;2022-09-17T00:58:10;5.50;;;4.97;;
25982;SDS011;13773;48.868;10.730;2022-09-17T01:00:39;6.27;;;4.70;;
25982;SDS011;13773;48.868;10.730;2022-09-17T01:03:05;5.40;;;4.90;;
25982;SDS011;13773;48.868;10.730;2022-09-17T01:08:20;6.03;;;5.30;;
25982;SDS011;13773;48.868;10.730;2022-09-17T01:16:32;6.23;;;5.20;;
25982;SDS011;13773;48.868;10.730;2022-09-17T01:22:07;5.90;;;5.30;;
25982;SDS011;13773;48.868;10.730;2022-09-17T01:25:16;6.43;;;5.20;;
25982;SDS011;13773;48.868;10.730;2022-09-17T01:36:19;6.90;;;5.60;;
25982;SDS011;13773;48.868;10.730;2022-09-17T01:39:02;5.83;;;5.13;;
25982;SDS011;13773;48.868;10.730;2022-09-17T01:41:40;6.50;;;5.90;;
25982;SDS011;13773;48.868;10.730;2022-09-17T01:47:21;7.03;;;5.30;;
25982;SDS011;13773;48.868;10.730;2022-09-17T01:49:54;5.80;;;5.30;;
25982;SDS011;13773;48.868;10.730;2022-09-17T01:52:27;5.53;;;4.90;;
25982;SDS011;13773;48.868;10.730;2022-09-17T01:54:59;10.90;;;5.57;;
25982;SDS011;13773;48.868;10.730;2022-09-17T01:57:29;5.67;;;4.67;;
25982;SDS011;13773;48.868;10.730;2022-09-17T02:00:07;7.23;;;5.10;;
25982;SDS011;13773;48.868;10.730;2022-09-17T02:02:37;6.60;;;4.97;;
25982;SDS011;13773;48.868;10.730;2022-09-17T02:05:10;7.23;;;5.20;;
25982;SDS011;13773;48.868;10.730;2022-09-17T02:07:41;6.10;;;5.50;;
25982;SDS011;13773;48.868;10.730;2022-09-17T02:10:19;6.27;;;5.07;;
25982;SDS011;13773;48.868;10.730;2022-09-17T02:12:55;5.40;;;4.90;;
25982;SDS011;13773;48.868;10.730;2022-09-17T02:15:30;8.33;;;5.40;;
25982;SDS011;13773;48.868;10.730;2022-09-17T02:18:05;9.37;;;6.27;;
25982;SDS011;13773;48.868;10.730;2022-09-17T02:20:50;6.23;;;5.63;;
25982;SDS011;13773;48.868;10.730;2022-09-17T02:23:22;6.47;;;5.87;;
25982;SDS011;13773;48.868;10.730;2022-09-17T02:25:57;8.13;;;6.37;;
25982;SDS011;13773;48.868;10.730;2022-09-17T02:28:40;7.70;;;6.43;;
25982;SDS011;13773;48.868;10.730;2022-09-17T02:31:14;8.53;;;6.50;;
25982;SDS011;13773;48.868;10.730;2022-09-17T02:33:42;7.97;;;6.90;;
25982;SDS011;13773;48.868;10.730;2022-09-17T02:36:11;6.97;;;6.27;;
25982;SDS011;13773;48.868;10.730;2022-09-17T02:38:37;7.17;;;6.47;;
25982;SDS011;13773;48.868;10.730;2022-09-17T02:41:09;9.63;;;7.07;;
25982;SDS011;13773;48.868;10.730;2022-09-17T02:56:45;7.10;;;6.40;;
25982;SDS011;13773;48.868;10.730;2022-09-17T02:59:44;10.33;;;6.50;;
25982;SDS011;13773;48.868;10.730;2022-09-17T03:04:41;6.63;;;5.97;;
25982;SDS011;13773;48.868;10.730;2022-09-17T03:07:11;7.23;;;5.77;;
25982;SDS011;13773;48.868;10.730;2022-09-17T03:09:38;6.30;;;5.20;;
25982;SDS011;13773;48.868;10.730;2022-09-17T03:12:04;5.87;;;4.83;;
25982;SDS011;13773;48.868;10.730;2022-09-17T03:14:30;8.03;;;4.80;;
25982;SDS011;13773;48.868;10.730;2022-09-17T03:16:56;5.90;;;4.40;;
25982;SDS011;13773;48.868;10.730;2022-09-17T03:19:21;8.60;;;4.43;;
25982;SDS011;13773;48.868;10.730;2022-09-17T03:21:47;4.57;;;4.13;;
25982;SDS011;13773;48.868;10.730;2022-09-17T03:24:13;6.03;;;4.50;;
25982;SDS011;13773;48.868;10.730;2022-09-17T03:26:39;5.70;;;4.27;;
25982;SDS011;13773;48.868;10.730;2022-09-17T03:29:04;8.20;;;4.37;;
25982;SDS011;13773;48.868;10.730;2022-09-17T03:31:30;5.93;;;4.27;;
25982;SDS011;13773;48.868;10.730;2022-09-17T03:33:56;5.90;;;4.90;;
25982;SDS011;13773;48.868;10.730;2022-09-17T03:36:22;7.60;;;4.80;;
25982;SDS011;13773;48.868;10.730;2022-09-17T03:38:52;9.00;;;5.00;;
25982;SDS011;13773;48.868;10.730;2022-09-17T03:41:22;9.17;;;4.77;;
25982;SDS011;13773;48.868;10.730;2022-09-17T03:43:48;8.13;;;4.37;;
25982;SDS011;13773;48.868;10.730;2022-09-17T03:46:14;6.53;;;4.60;;
25982;SDS011;13773;48.868;10.730;2022-09-17T03:48:39;7.33;;;3.83;;
25982;SDS011;13773;48.868;10.730;2022-09-17T03:51:05;8.00;;;4.33;;
25982;SDS011;13773;48.868;10.730;2022-09-17T03:53:31;7.83;;;3.80;;
25982;SDS011;13773;48.868;10.730;2022-09-17T03:56:00;8.43;;;3.90;;
25982;SDS011;13773;48.868;10.730;2022-09-17T03:58:28;5.07;;;3.80;;
25982;SDS011;13773;48.868;10.730;2022-09-17T04:00:54;7.57;;;3.93;;
25982;SDS011;13773;48.868;10.730;2022-09-17T04:03:25;6.10;;;3.57;;
25982;SDS011;13773;48.868;10.730;2022-09-17T04:05:52;7.33;;;3.53;;
25982;SDS011;13773;48.868;10.730;2022-09-17T04:08:19;5.67;;;3.63;;
25982;SDS011;13773;48.868;10.730;2022-09-17T04:10:45;4.80;;;3.50;;
25982;SDS011;13773;48.868;10.730;2022-09-17T04:13:12;8.80;;;3.70;;
25982;SDS011;13773;48.868;10.730;2022-09-17T04:15:39;7.60;;;3.50;;
25982;SDS011;13773;48.868;10.730;2022-09-17T04:18:05;5.90;;;2.90;;
25982;SDS011;13773;48.868;10.730;2022-09-17T04:20:31;7.07;;;3.07;;
25982;SDS011;13773;48.868;10.730;2022-09-17T04:22:57;7.07;;;3.30;;
25982;SDS011;13773;48.868;10.730;2022-09-17T04:25:22;9.17;;;3.10;;
25982;SDS011;13773;48.868;10.730;2022-09-17T04:27:49;6.07;;;3.27;;
25982;SDS011;13773;48.868;10.730;2022-09-17T04:30:14;5.60;;;2.87;;
25982;SDS011;13773;48.868;10.730;2022-09-17T04:32:44;7.07;;;2.80;;
25982;SDS011;13773;48.868;10.730;2022-09-17T04:35:10;6.50;;;2.63;;
25982;SDS011;13773;48.868;10.730;2022-09-17T04:37:36;8.37;;;3.17;;
25982;SDS011;13773;48.868;10.730;2022-09-17T04:40:02;4.07;;;2.50;;
25982;SDS011;13773;48.868;10.730;2022-09-17T04:42:28;7.20;;;2.60;;
25982;SDS011;13773;48.868;10.730;2022-09-17T04:44:54;7.97;;;2.83;;
25982;SDS011;13773;48.868;10.730;2022-09-17T04:47:19;6.67;;;2.63;;
25982;SDS011;13773;48.868;10.730;2022-09-17T04:49:45;4.43;;;2.67;;
25982;SDS011;13773;48.868;10.730;2022-09-17T04:52:11;12.57;;;3.27;;
25982;SDS011;13773;48.868;10.730;2022-09-17T04:54:36;6.87;;;3.07;;
25982;SDS011;13773;48.868;10.730;2022-09-17T04:57:02;7.53;;;2.87;;
25982;SDS011;13773;48.868;10.730;2022-09-17T04:59:28;5.80;;;3.57;;
25982;SDS011;13773;48.868;10.730;2022-09-17T05:01:54;7.20;;;3.17;;
25982;SDS011;13773;48.868;10.730;2022-09-17T05:04:19;12.23;;;3.40;;
25982;SDS011;13773;48.868;10.730;2022-09-17T05:06:45;6.40;;;3.13;;
25982;SDS011;13773;48.868;10.730;2022-09-17T05:09:11;6.73;;;3.40;;
25982;SDS011;13773;48.868;10.730;2022-09-17T05:11:38;11.97;;;3.13;;
25982;SDS011;13773;48.868;10.730;2022-09-17T05:14:03;8.13;;;3.00;;
25982;SDS011;13773;48.868;10.730;2022-09-17T05:16:29;4.43;;;2.73;;
25982;SDS011;13773;48.868;10.730;2022-09-17T05:18:54;6.53;;;3.07;;
25982;SDS011;13773;48.868;10.730;2022-09-17T05:21:21;7.23;;;3.23;;
25982;SDS011;13773;48.868;10.730;2022-09-17T05:23:47;6.83;;;3.17;;
25982;SDS011;13773;48.868;10.730;2022-09-17T05:26:13;6.90;;;4.13;;
25982;SDS011;13773;48.868;10.730;2022-09-17T05:28:39;8.20;;;2.73;;
25982;SDS011;13773;48.868;10.730;2022-09-17T05:31:05;5.00;;;2.83;;
25982;SDS011;13773;48.868;10.730;2022-09-17T05:33:31;5.97;;;2.67;;
25982;SDS011;13773;48.868;10.730;2022-09-17T05:35:57;8.07;;;3.00;;
25982;SDS011;13773;48.868;10.730;2022-09-17T05:38:24;7.93;;;2.43;;
25982;SDS011;13773;48.868;10.730;2022-09-17T05:40:49;6.67;;;2.80;;
25982;SDS011;13773;48.868;10.730;2022-09-17T05:43:15;6.27;;;3.00;;
25982;SDS011;13773;48.868;10.730;2022-09-17T05:45:41;7.47;;;2.50;;
25982;SDS011;13773;48.868;10.730;2022-09-17T05:48:10;7.43;;;2.50;;
25982;SDS011;13773;48.868;10.730;2022-09-17T05:50:37;5.93;;;3.37;;
25982;SDS011;13773;48.868;10.730;2022-09-17T05:53:11;3.97;;;3.00;;
25982;SDS011;13773;48.868;10.730;2022-09-17T05:55:38;10.17;;;3.73;;
25982;SDS011;13773;48.868;10.730;2022-09-17T05:58:11;13.03;;;3.47;;
25982;SDS011;13773;48.868;10.730;2022-09-17T06:00:38;8.80;;;3.40;;
25982;SDS011;13773;48.868;10.730;2022-09-17T06:03:05;6.37;;;3.70;;
25982;SDS011;13773;48.868;10.730;2022-09-17T06:05:32;7.50;;;3.43;;
25982;SDS011;13773;48.868;10.730;2022-09-17T06:07:58;6.37;;;3.40;;
25982;SDS011;13773;48.868;10.730;2022-09-17T06:10:23;8.33;;;3.73;;
25982;SDS011;13773;48.868;10.730;2022-09-17T06:12:54;10.03;;;3.57;;
25982;SDS011;13773;48.868;10.730;2022-09-17T06:15:20;8.57;;;3.97;;
25982;SDS011;13773;48.868;10.730;2022-09-17T06:17:46;10.17;;;3.73;;
25982;SDS011;13773;48.868;10.730;2022-09-17T06:20:12;12.50;;;4.17;;
25982;SDS011;13773;48.868;10.730;2022-09-17T06:22:39;12.90;;;4.20;;
25982;SDS011;13773;48.868;10.730;2022-09-17T06:25:05;11.57;;;4.30;;
25982;SDS011;13773;48.868;10.730;2022-09-17T06:27:32;10.77;;;4.70;;
25982;SDS011;13773;48.868;10.730;2022-09-17T06:29:58;12.50;;;5.40;;
25982;SDS011;13773;48.868;10.730;2022-09-17T06:32:24;11.77;;;4.70;;
25982;SDS011;13773;48.868;10.730;2022-09-17T06:34:51;8.60;;;4.80;;
25982;SDS011;13773;48.868;10.730;2022-09-17T06:37:17;9.70;;;5.10;;
25982;SDS011;13773;48.868;10.730;2022-09-17T06:39:43;9.73;;;5.40;;
25982;SDS011;13773;48.868;10.730;2022-09-17T06:42:11;12.40;;;5.73;;
25982;SDS011;13773;48.868;10.730;2022-09-17T06:44:37;10.27;;;5.50;;
25982;SDS011;13773;48.868;10.730;2022-09-17T06:47:02;9.97;;;6.17;;
25982;SDS011;13773;48.868;10.730;2022-09-17T06:49:28;7.63;;;6.00;;
25982;SDS011;13773;48.868;10.730;2022-09-17T06:51:55;11.87;;;6.90;;
25982;SDS011;13773;48.868;10.730;2022-09-17T06:54:21;16.70;;;6.90;;
25982;SDS011;13773;48.868;10.730;2022-09-17T06:56:46;14.37;;;6.87;;
25982;SDS011;13773;48.868;10.730;2022-09-17T06:59:12;13.30;;;7.00;;
25982;SDS011;13773;48.868;10.730;2022-09-17T07:01:38;10.73;;;7.30;;
25982;SDS011;13773;48.868;10.730;2022-09-17T07:04:03;13.27;;;7.53;;
25982;SDS011;13773;48.868;10.730;2022-09-17T07:06:29;13.17;;;7.30;;
25982;SDS011;13773;48.868;10.730;2022-09-17T07:08:55;10.10;;;7.50;;
25982;SDS011;13773;48.868;10.730;2022-09-17T07:11:23;14.10;;;7.77;;
25982;SDS011;13773;48.868;10.730;2022-09-17T07:13:48;9.20;;;7.20;;
25982;SDS011;13773;48.868;10.730;2022-09-17T07:16:14;13.10;;;6.97;;
25982;SDS011;13773;48.868;10.730;2022-09-17T07:18:40;9.63;;;6.97;;
25982;SDS011;13773;48.868;10.730;2022-09-17T07:21:05;9.23;;;7.50;;
25982;SDS011;13773;48.868;10.730;2022-09-17T07:23:33;9.73;;;7.13;;
25982;SDS011;13773;48.868;10.730;2022-09-17T07:26:00;8.07;;;6.33;;
25982;SDS011;13773;48.868;10.730;2022-09-17T07:28:30;8.30;;;6.37;;
25982;SDS011;13773;48.868;10.730;2022-09-17T07:30:56;10.40;;;6.70;;
25982;SDS011;13773;48.868;10.730;2022-09-17T07:33:23;8.43;;;6.70;;
25982;SDS011;13773;48.868;10.730;2022-09-17T07:38:20;9.83;;;6.67;;
25982;SDS011;13773;48.868;10.730;2022-09-17T07:40:59;11.30;;;7.20;;
25982;SDS011;13773;48.868;10.730;2022-09-17T07:43:26;9.43;;;7.03;;
25982;SDS011;13773;48.868;10.730;2022-09-17T07:45:53;11.90;;;6.93;;
25982;SDS011;13773;48.868;10.730;2022-09-17T07:48:19;8.43;;;7.50;;
25982;SDS011;13773;48.868;10.730;2022-09-17T07:50:45;7.77;;;6.97;;
25982;SDS011;13773;48.868;10.730;2022-09-17T07:53:11;9.17;;;7.10;;
25982;SDS011;13773;48.868;10.730;2022-09-17T07:55:37;10.33;;;7.80;;
25982;SDS011;13773;48.868;10.730;2022-09-17T07:58:03;10.47;;;8.20;;
25982;SDS011;13773;48.868;10.730;2022-09-17T08:00:29;13.50;;;8.60;;
25982;SDS011;13773;48.868;10.730;2022-09-17T08:02:55;10.17;;;8.33;;
25982;SDS011;13773;48.868;10.730;2022-09-17T08:05:22;14.33;;;7.97;;
25982;SDS011;13773;48.868;10.730;2022-09-17T08:07:52;9.37;;;7.17;;
25982;SDS011;13773;48.868;10.730;2022-09-17T08:10:19;8.40;;;7.00;;
25982;SDS011;13773;48.868;10.730;2022-09-17T08:12:50;10.27;;;6.90;;
25982;SDS011;13773;48.868;10.730;2022-09-17T08:15:20;8.30;;;5.83;;
25982;SDS011;13773;48.868;10.730;2022-09-17T08:17:46;8.90;;;7.10;;
25982;SDS011;13773;48.868;10.730;2022-09-17T08:20:12;9.97;;;6.00;;
25982;SDS011;13773;48.868;10.730;2022-09-17T08:22:39;9.73;;;4.93;;
25982;SDS011;13773;48.868;10.730;2022-09-17T08:25:06;8.60;;;5.73;;
25982;SDS011;13773;48.868;10.730;2022-09-17T08:27:33;8.43;;;5.83;;
25982;SDS011;13773;48.868;10.730;2022-09-17T08:29:59;7.00;;;5.43;;
25982;SDS011;13773;48.868;10.730;2022-09-17T08:32:24;5.93;;;5.03;;
25982;SDS011;13773;48.868;10.730;2022-09-17T08:34:53;6.60;;;5.60;;
25982;SDS011;13773;48.868;10.730;2022-09-17T08:37:19;8.37;;;5.23;;
25982;SDS011;13773;48.868;10.730;2022-09-17T08:39:45;6.93;;;5.10;;
25982;SDS011;13773;48.868;10.730;2022-09-17T08:42:12;4.87;;;4.13;;
25982;SDS011;13773;48.868;10.730;2022-09-17T08:44:45;5.93;;;4.03;;
25982;SDS011;13773;48.868;10.730;2022-09-17T08:47:13;5.87;;;4.67;;
25982;SDS011;13773;48.868;10.730;2022-09-17T08:57:47;3.53;;;3.23;;
25982;SDS011;13773;48.868;10.730;2022-09-17T09:00:38;4.40;;;3.03;;
25982;SDS011;13773;48.868;10.730;2022-09-17T09:05:46;3.23;;;2.93;;
25982;SDS011;13773;48.868;10.730;2022-09-17T09:11:04;3.57;;;3.30;;
25982;SDS011;13773;48.868;10.730;2022-09-17T09:13:39;2.70;;;2.50;;
25982;SDS011;13773;48.868;10.730;2022-09-17T09:16:12;2.43;;;2.30;;
25982;SDS011;13773;48.868;10.730;2022-09-17T09:18:42;2.70;;;2.33;;
25982;SDS011;13773;48.868;10.730;2022-09-17T09:26:31;2.67;;;2.10;;
25982;SDS011;13773;48.868;10.730;2022-09-17T09:29:34;4.50;;;3.10;;
25982;SDS011;13773;48.868;10.730;2022-09-17T09:37:51;2.70;;;2.50;;
25982;SDS011;13773;48.868;10.730;2022-09-17T09:40:41;9.47;;;3.03;;
25982;SDS011;13773;48.868;10.730;2022-09-17T09:48:37;3.10;;;1.87;;
25982;SDS011;13773;48.868;10.730;2022-09-17T09:59:24;5.83;;;2.33;;
25982;SDS011;13773;48.868;10.730;2022-09-17T10:01:50;5.67;;;2.00;;
25982;SDS011;13773;48.868;10.730;2022-09-17T10:04:18;6.43;;;2.00;;
25982;SDS011;13773;48.868;10.730;2022-09-17T10:06:50;5.93;;;2.30;;
25982;SDS011;13773;48.868;10.730;2022-09-17T10:09:17;4.13;;;2.20;;
25982;SDS011;13773;48.868;10.730;2022-09-17T10:14:42;5.10;;;2.33;;
25982;SDS011;13773;48.868;10.730;2022-09-17T10:17:10;4.17;;;1.90;;
25982;SDS011;13773;48.868;10.730;2022-09-17T10:19:43;4.80;;;2.33;;
25982;SDS011;13773;48.868;10.730;2022-09-17T10:22:18;7.13;;;2.10;;
25982;SDS011;13773;48.868;10.730;2022-09-17T10:24:50;6.63;;;2.40;;
25982;SDS011;13773;48.868;10.730;2022-09-17T10:27:18;9.73;;;3.70;;
25982;SDS011;13773;48.868;10.730;2022-09-17T10:29:47;7.97;;;2.80;;
25982;SDS011;13773;48.868;10.730;2022-09-17T10:32:17;6.43;;;2.87;;
25982;SDS011;13773;48.868;10.730;2022-09-17T10:42:45;5.67;;;2.93;;
25982;SDS011;13773;48.868;10.730;2022-09-17T10:45:24;6.63;;;3.57;;
25982;SDS011;13773;48.868;10.730;2022-09-17T10:47:52;8.07;;;4.00;;
25982;SDS011;13773;48.868;10.730;2022-09-17T10:50:22;9.90;;;4.60;;
25982;SDS011;13773;48.868;10.730;2022-09-17T10:52:54;7.53;;;3.80;;
25982;SDS011;13773;48.868;10.730;2022-09-17T10:58:08;8.73;;;2.90;;
25982;SDS011;13773;48.868;10.730;2022-09-17T11:12:27;9.07;;;3.43;;
25982;SDS011;13773;48.868;10.730;2022-09-17T11:20:44;9.80;;;3.97;;
25982;SDS011;13773;48.868;10.730;2022-09-17T11:45:24;6.73;;;2.50;;
25982;SDS011;13773;48.868;10.730;2022-09-17T11:47:57;4.43;;;2.47;;
25982;SDS011;13773;48.868;10.730;2022-09-17T11:50:27;4.50;;;2.53;;
25982;SDS011;13773;48.868;10.730;2022-09-17T11:53:03;4.73;;;2.77;;
25982;SDS011;13773;48.868;10.730;2022-09-17T12:04:30;4.80;;;2.50;;
25982;SDS011;13773;48.868;10.730;2022-09-17T12:09:44;6.00;;;3.13;;
25982;SDS011;13773;48.868;10.730;2022-09-17T12:12:20;6.00;;;2.57;;
25982;SDS011;13773;48.868;10.730;2022-09-17T12:14:52;4.13;;;2.73;;
25982;SDS011;13773;48.868;10.730;2022-09-17T12:17:23;5.70;;;1.97;;
25982;SDS011;13773;48.868;10.730;2022-09-17T12:19:55;6.47;;;2.77;;
25982;SDS011;13773;48.868;10.730;2022-09-17T12:22:31;4.50;;;2.20;;
25982;SDS011;13773;48.868;10.730;2022-09-17T12:25:00;6.43;;;2.70;;
25982;SDS011;13773;48.868;10.730;2022-09-17T12:30:11;9.27;;;2.80;;
25982;SDS011;13773;48.868;10.730;2022-09-17T12:38:21;6.07;;;2.30;;
25982;SDS011;13773;48.868;10.730;2022-09-17T12:41:18;5.20;;;2.40;;
25982;SDS011;13773;48.868;10.730;2022-09-17T12:51:53;3.50;;;1.97;;
25982;SDS011;13773;48.868;10.730;2022-09-17T12:59:31;2.67;;;1.40;;
25982;SDS011;13773;48.868;10.730;2022-09-17T13:05:32;6.47;;;2.00;;
25982;SDS011;13773;48.868;10.730;2022-09-17T13:10:40;3.57;;;1.67;;
25982;SDS011;13773;48.868;10.730;2022-09-17T13:13:29;1.87;;;1.17;;
25982;SDS011;13773;48.868;10.730;2022-09-17T13:24:14;6.80;;;2.77;;
25982;SDS011;13773;48.868;10.730;2022-09-17T13:26:42;6.60;;;2.57;;
25982;SDS011;13773;48.868;10.730;2022-09-17T13:29:09;4.90;;;3.50;;
25982;SDS011;13773;48.868;10.730;2022-09-17T13:34:03;8.47;;;4.10;;
25982;SDS011;13773;48.868;10.730;2022-09-17T13:36:54;6.43;;;3.87;;
25982;SDS011;13773;48.868;10.730;2022-09-17T13:39:37;8.63;;;3.10;;
25982;SDS011;13773;48.868;10.730;2022-09-17T13:42:16;4.37;;;2.80;;
25982;SDS011;13773;48.868;10.730;2022-09-17T13:47:59;7.13;;;3.47;;
25982;SDS011;13773;48.868;10.730;2022-09-17T13:53:05;5.87;;;2.40;;
25982;SDS011;13773;48.868;10.730;2022-09-17T13:55:48;5.17;;;2.67;;
25982;SDS011;13773;48.868;10.730;2022-09-17T14:35:22;3.80;;;2.07;;
25982;SDS011;13773;48.868;10.730;2022-09-17T14:37:59;2.67;;;1.70;;
25982;SDS011;13773;48.868;10.730;2022-09-17T14:40:48;2.10;;;1.53;;
25982;SDS011;13773;48.868;10.730;2022-09-17T14:46:24;6.57;;;1.67;;
25982;SDS011;13773;48.868;10.730;2022-09-17T14:49:13;2.30;;;1.70;;
25982;SDS011;13773;48.868;10.730;2022-09-17T14:51:43;2.87;;;1.90;;
25982;SDS011;13773;48.868;10.730;2022-09-17T15:04:56;2.93;;;1.70;;
25982;SDS011;13773;48.868;10.730;2022-09-17T15:07:23;4.07;;;1.43;;
25982;SDS011;13773;48.868;10.730;2022-09-17T15:09:49;4.57;;;1.73;;
25982;SDS011;13773;48.868;10.730;2022-09-17T15:12:19;4.40;;;1.80;;
25982;SDS011;13773;48.868;10.730;2022-09-17T15:14:52;4.63;;;1.40;;
25982;SDS011;13773;48.868;10.730;2022-09-17T15:17:21;5.00;;;1.50;;
25982;SDS011;13773;48.868;10.730;2022-09-17T15:19:50;3.30;;;1.23;;
25982;SDS011;13773;48.868;10.730;2022-09-17T15:22:21;5.90;;;1.50;;
25982;SDS011;13773;48.868;10.730;2022-09-17T15:24:58;4.13;;;1.20;;
25982;SDS011;13773;48.868;10.730;2022-09-17T15:27:30;4.93;;;1.30;;
25982;SDS011;13773;48.868;10.730;2022-09-17T15:30:18;2.00;;;1.10;;
25982;SDS011;13773;48.868;10.730;2022-09-17T15:32:50;3.27;;;1.60;;
25982;SDS011;13773;48.868;10.730;2022-09-17T15:35:19;1.97;;;1.30;;
25982;SDS011;13773;48.868;10.730;2022-09-17T15:37:53;2.40;;;1.00;;
25982;SDS011;13773;48.868;10.730;2022-09-17T15:40:27;5.63;;;1.40;;
25982;SDS011;13773;48.868;10.730;2022-09-17T15:43:10;2.27;;;1.40;;
25982;SDS011;13773;48.868;10.730;2022-09-17T15:46:03;2.23;;;1.30;;
25982;SDS011;13773;48.868;10.730;2022-09-17T15:49:00;3.47;;;1.30;;
25982;SDS011;13773;48.868;10.730;2022-09-17T15:51:27;5.07;;;1.37;;
25982;SDS011;13773;48.868;10.730;2022-09-17T15:54:03;3.50;;;1.30;;
25982;SDS011;13773;48.868;10.730;2022-09-17T15:56:31;3.27;;;1.33;;
25982;SDS011;13773;48.868;10.730;2022-09-17T15:59:24;3.37;;;1.27;;
25982;SDS011;13773;48.868;10.730;2022-09-17T16:01:55;1.47;;;1.23;;
25982;SDS011;13773;48.868;10.730;2022-09-17T16:09:48;2.97;;;1.30;;
25982;SDS011;13773;48.868;10.730;2022-09-17T16:12:16;3.20;;;1.57;;
25982;SDS011;13773;48.868;10.730;2022-09-17T16:14:48;2.93;;;1.50;;
25982;SDS011;13773;48.868;10.730;2022-09-17T16:17:21;4.17;;;1.70;;
25982;SDS011;13773;48.868;10.730;2022-09-17T16:20:20;2.03;;;1.40;;
25982;SDS011;13773;48.868;10.730;2022-09-17T16:22:48;3.17;;;1.00;;
25982;SDS011;13773;48.868;10.730;2022-09-17T16:25:16;3.17;;;1.23;;
25982;SDS011;13773;48.868;10.730;2022-09-17T16:28:44;3.07;;;1.70;;
25982;SDS011;13773;48.868;10.730;2022-09-17T16:30:45;3.27;;;1.50;;
25982;SDS011;13773;48.868;10.730;2022-09-17T16:33:14;4.20;;;2.17;;
25982;SDS011;13773;48.868;10.730;2022-09-17T16:35:41;4.73;;;2.47;;
25982;SDS011;13773;48.868;10.730;2022-09-17T16:38:07;5.27;;;1.63;;
25982;SDS011;13773;48.868;10.730;2022-09-17T16:40:34;3.00;;;1.77;;
25982;SDS011;13773;48.868;10.730;2022-09-17T16:43:04;3.73;;;1.83;;
25982;SDS011;13773;48.868;10.730;2022-09-17T16:45:30;1.93;;;1.50;;
25982;SDS011;13773;48.868;10.730;2022-09-17T16:47:56;1.80;;;1.50;;
25982;SDS011;13773;48.868;10.730;2022-09-17T16:50:22;3.93;;;2.10;;
25982;SDS011;13773;48.868;10.730;2022-09-17T16:52:47;5.80;;;1.90;;
25982;SDS011;13773;48.868;10.730;2022-09-17T16:55:14;2.80;;;1.70;;
25982;SDS011;13773;48.868;10.730;2022-09-17T16:57:41;3.50;;;2.93;;
25982;SDS011;13773;48.868;10.730;2022-09-17T17:00:08;5.50;;;1.67;;
25982;SDS011;13773;48.868;10.730;2022-09-17T17:02:40;5.30;;;2.80;;
25982;SDS011;13773;48.868;10.730;2022-09-17T17:05:07;3.67;;;2.53;;
25982;SDS011;13773;48.868;10.730;2022-09-17T17:07:34;5.40;;;2.73;;
25982;SDS011;13773;48.868;10.730;2022-09-17T17:10:02;4.83;;;2.70;;
25982;SDS011;13773;48.868;10.730;2022-09-17T17:12:29;2.57;;;2.37;;
25982;SDS011;13773;48.868;10.730;2022-09-17T17:14:55;4.67;;;3.17;;
25982;SDS011;13773;48.868;10.730;2022-09-17T17:17:20;5.03;;;2.73;;
25982;SDS011;13773;48.868;10.730;2022-09-17T17:19:46;4.90;;;3.63;;
25982;SDS011;13773;48.868;10.730;2022-09-17T17:22:12;7.00;;;3.50;;
25982;SDS011;13773;48.868;10.730;2022-09-17T17:24:38;7.57;;;4.67;;
25982;SDS011;13773;48.868;10.730;2022-09-17T17:27:04;7.67;;;4.87;;
25982;SDS011;13773;48.868;10.730;2022-09-17T17:29:30;5.67;;;3.33;;
25982;SDS011;13773;48.868;10.730;2022-09-17T17:31:56;4.80;;;2.60;;
25982;SDS011;13773;48.868;10.730;2022-09-17T17:34:22;7.37;;;2.87;;
25982;SDS011;13773;48.868;10.730;2022-09-17T17:36:48;4.87;;;2.33;;
25982;SDS011;13773;48.868;10.730;2022-09-17T17:39:13;3.37;;;2.40;;
25982;SDS011;13773;48.868;10.730;2022-09-17T17:41:39;3.30;;;2.20;;
25982;SDS011;13773;48.868;10.730;2022-09-17T17:44:05;4.67;;;3.20;;
25982;SDS011;13773;48.868;10.730;2022-09-17T17:46:31;3.20;;;2.30;;
25982;SDS011;13773;48.868;10.730;2022-09-17T17:48:56;4.13;;;2.20;;
25982;SDS011;13773;48.868;10.730;2022-09-17T17:51:22;5.43;;;2.03;;
25982;SDS011;13773;48.868;10.730;2022-09-17T17:53:49;5.27;;;2.37;;
25982;SDS011;13773;48.868;10.730;2022-09-17T17:56:15;4.50;;;1.97;;
25982;SDS011;13773;48.868;10.730;2022-09-17T17:58:42;4.27;;;2.30;;
25982;SDS011;13773;48.868;10.730;2022-09-17T18:01:12;5.63;;;2.50;;
25982;SDS011;13773;48.868;10.730;2022-09-17T18:03:39;3.97;;;2.93;;
25982;SDS011;13773;48.868;10.730;2022-09-17T18:06:06;6.77;;;2.40;;
25982;SDS011;13773;48.868;10.730;2022-09-17T18:08:34;3.00;;;2.30;;
25982;SDS011;13773;48.868;10.730;2022-09-17T18:11:01;4.93;;;2.57;;
25982;SDS011;13773;48.868;10.730;2022-09-17T18:13:31;4.43;;;2.40;;
25982;SDS011;13773;48.868;10.730;2022-09-17T18:15:58;3.90;;;2.77;;
25982;SDS011;13773;48.868;10.730;2022-09-17T18:18:26;2.87;;;2.37;;
25982;SDS011;13773;48.868;10.730;2022-09-17T18:21:02;4.97;;;2.70;;
25982;SDS011;13773;48.868;10.730;2022-09-17T18:23:32;5.00;;;2.80;;
25982;SDS011;13773;48.868;10.730;2022-09-17T18:25:59;5.50;;;2.40;;
25982;SDS011;13773;48.868;10.730;2022-09-17T18:28:26;5.17;;;2.90;;
25982;SDS011;13773;48.868;10.730;2022-09-17T18:30:54;2.93;;;2.23;;
25982;SDS011;13773;48.868;10.730;2022-09-17T18:33:22;3.03;;;2.20;;
25982;SDS011;13773;48.868;10.730;2022-09-17T18:35:52;3.03;;;2.60;;
25982;SDS011;13773;48.868;10.730;2022-09-17T18:38:23;5.57;;;2.87;;
25982;SDS011;13773;48.868;10.730;2022-09-17T18:40:49;6.50;;;3.37;;
25982;SDS011;13773;48.868;10.730;2022-09-17T18:43:15;4.80;;;2.37;;
25982;SDS011;13773;48.868;10.730;2022-09-17T18:45:41;5.00;;;2.07;;
25982;SDS011;13773;48.868;10.730;2022-09-17T18:48:07;4.23;;;1.83;;
25982;SDS011;13773;48.868;10.730;2022-09-17T18:50:33;2.70;;;2.00;;
25982;SDS011;13773;48.868;10.730;2022-09-17T18:52:59;3.70;;;1.97;;
25982;SDS011;13773;48.868;10.730;2022-09-17T18:55:25;3.67;;;2.37;;
25982;SDS011;13773;48.868;10.730;2022-09-17T18:57:51;4.30;;;2.73;;